Time;durP1;ratioP1;P1;durP2;ratioP2;P2;SDS_P1;SDS_P2;PMS_P1;PMS_P2;Temp;Humidity;BMP_temperature;BMP_pressure;BME280_temperature;BME280_humidity;BME280_pressure;Samples;Min_cycle;Max_cycle;Signal;HPM_P1;HPM_P2
2023/12/25 00:00:17;;;;;;;1.10;1.00;;;14.10;98.60;;;;;;974180;146;27248;-88
2023/12/25 00:02:43;;;;;;;1.32;1.05;;;14.10;98.20;;;;;;973585;146;27277;-88
2023/12/25 00:05:31;;;;;;;;;;;;;;;;;;;;;
2023/12/25 00:07:45;;;;;;;2.58;1.37;;;14.10;98.30;;;;;;920829;147;27332;-89
2023/12/25 00:10:12;;;;;;;2.02;1.50;;;14.00;98.40;;;;;;974448;147;27416;-90
2023/12/25 00:12:38;;;;;;;5.22;1.50;;;14.00;98.30;;;;;;974434;145;27266;-89
2023/12/25 00:15:05;;;;;;;1.77;1.20;;;14.10;98.30;;;;;;973434;146;27307;-90
2023/12/25 00:17:32;;;;;;;3.27;1.40;;;14.00;98.50;;;;;;972646;146;27404;-87
2023/12/25 00:19:58;;;;;;;2.80;1.35;;;14.00;98.30;;;;;;973485;146;27462;-94
2023/12/25 00:22:25;;;;;;;1.92;1.20;;;14.00;98.40;;;;;;975044;147;27292;-87
2023/12/25 00:24:51;;;;;;;1.67;1.20;;;14.00;98.50;;;;;;974372;146;27357;-87
2023/12/25 00:27:20;;;;;;;1.92;1.32;;;14.00;98.60;;;;;;972739;147;27304;-87
2023/12/25 00:29:44;;;;;;;2.08;1.30;;;14.00;98.50;;;;;;974458;147;27332;-87
2023/12/25 00:32:15;;;;;;;2.33;1.40;;;13.90;98.60;;;;;;972173;147;27335;-88
2023/12/25 00:34:42;;;;;;;2.37;1.17;;;13.90;98.70;;;;;;972420;147;27273;-88
2023/12/25 00:37:07;;;;;;;2.47;1.20;;;13.90;98.80;;;;;;973717;146;27312;-87
2023/12/25 00:39:34;;;;;;;1.65;1.17;;;13.90;98.90;;;;;;975072;146;27319;-90
2023/12/25 00:42:00;;;;;;;1.85;1.20;;;13.80;99.20;;;;;;973844;146;27274;-87
2023/12/25 00:44:27;;;;;;;2.22;1.25;;;13.80;99.10;;;;;;975244;146;27360;-88
2023/12/25 00:46:53;;;;;;;1.40;1.10;;;13.80;98.70;;;;;;940030;149;27403;-88
2023/12/25 00:49:20;;;;;;;1.52;1.30;;;13.80;99.10;;;;;;974350;147;27417;-90
2023/12/25 00:51:47;;;;;;;2.90;1.40;;;13.80;99.10;;;;;;974021;147;27273;-88
2023/12/25 00:54:13;;;;;;;2.22;1.25;;;13.80;99.60;;;;;;973087;146;27349;-88
2023/12/25 00:56:40;;;;;;;1.72;1.15;;;13.80;99.40;;;;;;968500;148;27284;-89
2023/12/25 00:59:06;;;;;;;1.32;1.10;;;13.70;99.40;;;;;;967948;146;27354;-87
2023/12/25 01:01:33;;;;;;;4.40;1.87;;;13.80;99.30;;;;;;967745;147;27425;-88
2023/12/25 01:03:59;;;;;;;1.52;1.00;;;13.80;99.40;;;;;;968233;147;27278;-87
2023/12/25 01:06:26;;;;;;;1.62;1.40;;;13.70;99.50;;;;;;968236;146;27420;-88
2023/12/25 01:12:15;;;;;;;1.35;1.25;;;13.70;99.60;;;;;;967620;147;27312;-89
2023/12/25 01:14:44;;;;;;;1.42;1.27;;;13.70;99.60;;;;;;968143;145;27382;-88
2023/12/25 01:17:11;;;;;;;2.83;1.37;;;13.60;99.70;;;;;;968604;146;27428;-88
2023/12/25 01:19:37;;;;;;;1.32;1.07;;;13.60;99.90;;;;;;966697;146;27374;-89
2023/12/25 01:22:04;;;;;;;1.82;1.57;;;13.60;99.90;;;;;;967850;147;27604;-89
2023/12/25 01:24:30;;;;;;;1.67;1.25;;;13.50;99.90;;;;;;968830;147;27366;-87
2023/12/25 01:26:57;;;;;;;3.10;1.22;;;13.60;99.90;;;;;;968278;147;27410;-88
2023/12/25 01:29:24;;;;;;;1.40;1.30;;;13.60;99.90;;;;;;969000;146;27405;-89
2023/12/25 01:31:50;;;;;;;2.07;1.40;;;13.60;99.90;;;;;;968329;147;27448;-89
2023/12/25 01:34:17;;;;;;;3.57;1.30;;;13.50;99.90;;;;;;969163;147;27218;-87
2023/12/25 01:36:43;;;;;;;2.83;1.42;;;13.60;99.90;;;;;;968804;147;27341;-87
2023/12/25 01:39:12;;;;;;;2.55;1.40;;;13.50;99.90;;;;;;968574;148;27310;-89
2023/12/25 01:41:36;;;;;;;2.52;1.10;;;13.50;99.90;;;;;;968469;146;27332;-87
2023/12/25 01:44:03;;;;;;;2.05;1.12;;;13.50;99.90;;;;;;968621;147;27415;-88
2023/12/25 01:46:30;;;;;;;1.62;1.52;;;13.50;99.90;;;;;;968442;146;27291;-87
2023/12/25 01:48:56;;;;;;;1.40;1.25;;;13.50;99.90;;;;;;967760;145;27393;-87
2023/12/25 01:51:23;;;;;;;1.42;1.32;;;13.40;99.90;;;;;;968149;145;27302;-87
2023/12/25 01:53:49;;;;;;;1.30;1.20;;;13.40;99.90;;;;;;967806;148;27737;-87
2023/12/25 01:56:16;;;;;;;1.35;1.20;;;13.40;99.90;;;;;;980130;145;27325;-87
2023/12/25 01:58:43;;;;;;;2.58;1.57;;;13.40;99.90;;;;;;972812;145;27354;-87
2023/12/25 02:01:09;;;;;;;2.02;1.57;;;13.40;99.90;;;;;;970650;146;27314;-88
2023/12/25 02:03:36;;;;;;;3.15;1.35;;;13.40;99.90;;;;;;968239;147;27343;-88
2023/12/25 02:06:02;;;;;;;2.85;1.32;;;13.40;99.90;;;;;;967893;146;27288;-88
2023/12/25 02:08:29;;;;;;;1.98;1.37;;;13.40;99.90;;;;;;968274;147;27306;-87
2023/12/25 02:10:56;;;;;;;1.35;1.10;;;13.40;99.90;;;;;;967902;146;27413;-87
2023/12/25 02:13:22;;;;;;;1.55;1.30;;;13.40;99.90;;;;;;966449;146;27306;-87
2023/12/25 02:15:49;;;;;;;1.75;1.35;;;13.40;99.90;;;;;;968074;145;27320;-88
2023/12/25 02:18:15;;;;;;;3.05;1.60;;;13.40;99.90;;;;;;968835;147;27238;-89
2023/12/25 02:20:42;;;;;;;1.70;1.17;;;13.40;99.90;;;;;;968410;145;27302;-85
2023/12/25 02:23:09;;;;;;;1.60;1.30;;;13.40;99.90;;;;;;968061;146;27404;-84
2023/12/25 02:25:36;;;;;;;2.08;1.35;;;13.40;99.90;;;;;;967971;146;27721;-85
2023/12/25 02:28:02;;;;;;;2.98;1.35;;;13.40;99.90;;;;;;968378;145;27274;-87
2023/12/25 02:30:28;;;;;;;3.62;1.17;;;13.40;99.90;;;;;;968323;147;27309;-85
2023/12/25 02:32:55;;;;;;;1.70;1.22;;;13.40;99.90;;;;;;968059;148;27311;-85
2023/12/25 02:35:21;;;;;;;1.80;1.10;;;13.40;99.90;;;;;;968352;148;27337;-86
2023/12/25 02:37:48;;;;;;;2.12;1.10;;;13.40;99.90;;;;;;968190;147;27370;-86
2023/12/25 02:40:15;;;;;;;2.15;1.42;;;13.50;99.90;;;;;;968621;148;27376;-86
2023/12/25 02:42:41;;;;;;;2.92;1.82;;;13.50;99.90;;;;;;968372;145;27328;-87
2023/12/25 02:45:08;;;;;;;2.20;1.50;;;13.50;99.90;;;;;;969016;146;27382;-85
2023/12/25 02:47:34;;;;;;;1.70;1.22;;;13.50;99.90;;;;;;967885;147;27262;-85
2023/12/25 02:50:04;;;;;;;1.15;1.05;;;13.50;99.90;;;;;;968511;147;28088;-89
2023/12/25 02:52:31;;;;;;;2.37;1.12;;;13.50;99.90;;;;;;968607;148;27364;-89
2023/12/25 02:54:57;;;;;;;2.50;1.30;;;13.50;99.90;;;;;;967695;146;27318;-90
2023/12/25 02:57:24;;;;;;;2.77;1.50;;;13.50;99.90;;;;;;975012;146;28219;-90
2023/12/25 02:59:51;;;;;;;3.15;1.30;;;13.50;99.90;;;;;;973935;147;27385;-90
2023/12/25 03:02:17;;;;;;;2.45;1.35;;;13.50;99.90;;;;;;974145;146;27381;-90
2023/12/25 03:04:44;;;;;;;2.33;1.10;;;13.50;99.90;;;;;;973763;147;27320;-90
2023/12/25 03:07:10;;;;;;;4.08;1.02;;;13.50;99.90;;;;;;974096;147;27301;-86
2023/12/25 03:09:37;;;;;;;2.35;1.20;;;13.50;99.90;;;;;;972700;147;27385;-86
2023/12/25 03:12:03;;;;;;;4.00;1.25;;;13.50;99.90;;;;;;973720;147;27294;-86
2023/12/25 03:14:30;;;;;;;3.05;1.00;;;13.50;99.90;;;;;;973870;147;27344;-85
2023/12/25 03:16:57;;;;;;;1.87;1.12;;;13.40;99.90;;;;;;975034;146;27405;-85
2023/12/25 03:19:23;;;;;;;3.35;1.05;;;13.40;99.90;;;;;;973655;147;27253;-86
2023/12/25 03:21:50;;;;;;;1.32;1.17;;;13.50;99.90;;;;;;973968;147;27225;-85
2023/12/25 03:24:16;;;;;;;1.42;0.90;;;13.40;99.90;;;;;;973635;145;27642;-89
2023/12/25 03:26:43;;;;;;;1.82;1.00;;;13.40;99.90;;;;;;974831;147;27418;-87
2023/12/25 03:29:10;;;;;;;2.58;1.00;;;13.40;99.90;;;;;;975231;146;27417;-84
2023/12/25 03:31:36;;;;;;;1.85;0.90;;;13.40;99.90;;;;;;974702;147;27257;-89
2023/12/25 03:34:03;;;;;;;0.82;0.82;;;13.40;99.90;;;;;;975017;146;27273;-88
2023/12/25 03:36:29;;;;;;;1.42;0.95;;;13.40;99.90;;;;;;973746;146;27391;-89
2023/12/25 03:38:56;;;;;;;2.62;0.95;;;13.40;99.90;;;;;;974029;146;27444;-89
2023/12/25 03:41:23;;;;;;;1.25;0.70;;;13.40;99.90;;;;;;973329;147;27345;-87
2023/12/25 03:43:49;;;;;;;0.80;0.65;;;13.40;99.90;;;;;;973893;146;27266;-87
2023/12/25 03:46:16;;;;;;;0.70;0.70;;;13.40;99.90;;;;;;974300;146;27226;-87
2023/12/25 03:48:43;;;;;;;2.10;0.60;;;13.40;99.90;;;;;;975349;146;27414;-87
2023/12/25 03:51:09;;;;;;;0.75;0.60;;;13.40;99.90;;;;;;975459;145;27389;-87
2023/12/25 03:53:35;;;;;;;0.80;0.60;;;13.40;99.90;;;;;;975070;146;27289;-88
2023/12/25 03:56:02;;;;;;;0.85;0.72;;;13.40;99.90;;;;;;975268;145;27608;-88
2023/12/25 03:58:29;;;;;;;0.57;0.57;;;13.40;99.90;;;;;;974765;147;27412;-87
2023/12/25 04:00:55;;;;;;;0.60;0.55;;;13.30;99.90;;;;;;975396;146;27301;-87
2023/12/25 04:03:22;;;;;;;0.80;0.80;;;13.40;99.90;;;;;;975640;147;27617;-88
2023/12/25 04:05:48;;;;;;;0.40;0.40;;;13.40;99.90;;;;;;975760;146;27260;-87
2023/12/25 04:08:15;;;;;;;0.50;0.42;;;13.30;99.90;;;;;;941280;149;27357;-87
2023/12/25 04:10:42;;;;;;;0.62;0.47;;;13.30;99.90;;;;;;975362;145;27429;-88
2023/12/25 04:13:08;;;;;;;0.60;0.40;;;13.30;99.90;;;;;;974869;146;27342;-87
2023/12/25 04:15:35;;;;;;;0.50;0.40;;;13.30;99.90;;;;;;974881;146;27395;-88
2023/12/25 04:18:01;;;;;;;0.65;0.57;;;13.30;99.90;;;;;;974732;147;27428;-87
2023/12/25 04:20:28;;;;;;;0.35;0.35;;;13.30;99.90;;;;;;975255;147;27321;-88
2023/12/25 04:22:55;;;;;;;0.45;0.30;;;13.30;99.90;;;;;;974730;145;27208;-87
2023/12/25 04:25:21;;;;;;;2.15;0.50;;;13.30;99.90;;;;;;974910;147;27288;-87
2023/12/25 04:27:48;;;;;;;0.42;0.42;;;13.30;99.90;;;;;;926599;151;27412;-87
2023/12/25 04:30:14;;;;;;;0.60;0.60;;;13.30;99.90;;;;;;938813;148;27332;-87
2023/12/25 04:32:41;;;;;;;1.98;0.70;;;13.30;99.90;;;;;;934926;152;27367;-87
2023/12/25 04:35:08;;;;;;;0.28;0.28;;;13.30;99.90;;;;;;934867;152;27294;-88
2023/12/25 04:37:34;;;;;;;0.50;0.50;;;13.30;99.90;;;;;;974038;146;27321;-89
2023/12/25 04:40:01;;;;;;;0.72;0.30;;;13.30;99.90;;;;;;975393;146;27291;-87
2023/12/25 04:42:27;;;;;;;0.60;0.55;;;13.30;99.90;;;;;;975406;146;27329;-85
2023/12/25 04:44:54;;;;;;;0.37;0.37;;;13.30;99.90;;;;;;938585;150;27365;-85
2023/12/25 04:47:20;;;;;;;0.50;0.50;;;13.30;99.90;;;;;;967262;146;27413;-84
2023/12/25 04:49:47;;;;;;;0.30;0.30;;;13.30;99.90;;;;;;967997;147;27271;-84
2023/12/25 04:52:14;;;;;;;0.40;0.40;;;13.30;99.90;;;;;;966906;146;27294;-85
2023/12/25 04:54:40;;;;;;;0.40;0.40;;;13.40;99.90;;;;;;969065;146;27310;-86
2023/12/25 04:57:07;;;;;;;0.40;0.40;;;13.30;99.90;;;;;;964594;146;27403;-84
2023/12/25 04:59:33;;;;;;;0.93;0.50;;;13.40;99.90;;;;;;962537;148;27306;-85
2023/12/25 05:02:00;;;;;;;0.30;0.30;;;13.40;99.90;;;;;;961065;148;27271;-83
2023/12/25 05:04:27;;;;;;;0.30;0.30;;;13.40;99.90;;;;;;933824;152;27352;-83
2023/12/25 05:06:53;;;;;;;0.53;0.30;;;13.40;99.90;;;;;;946653;151;27832;-83
2023/12/25 05:09:20;;;;;;;0.20;0.20;;;13.40;99.90;;;;;;946154;150;27329;-83
2023/12/25 05:11:47;;;;;;;0.68;0.40;;;13.30;99.90;;;;;;922851;155;27363;-83
2023/12/25 05:14:13;;;;;;;0.50;0.42;;;13.40;99.90;;;;;;938336;152;27447;-83
2023/12/25 05:16:39;;;;;;;0.30;0.30;;;13.40;99.90;;;;;;941119;151;27447;-83
2023/12/25 05:19:06;;;;;;;0.40;0.40;;;13.40;99.90;;;;;;935024;150;27319;-83
2023/12/25 05:21:33;;;;;;;0.50;0.50;;;13.40;99.90;;;;;;934398;153;27608;-84
2023/12/25 05:23:59;;;;;;;0.30;0.30;;;13.40;99.90;;;;;;934210;152;27703;-83
2023/12/25 05:26:27;;;;;;;0.30;0.30;;;13.40;99.90;;;;;;934450;153;27371;-83
2023/12/25 05:28:52;;;;;;;0.30;0.30;;;13.40;99.90;;;;;;939243;151;27434;-83
2023/12/25 05:31:19;;;;;;;0.25;0.25;;;13.30;99.90;;;;;;941698;152;27280;-83
2023/12/25 05:33:46;;;;;;;0.20;0.20;;;13.40;99.90;;;;;;936164;151;27360;-83
2023/12/25 05:36:12;;;;;;;0.40;0.40;;;13.30;99.90;;;;;;933584;152;27691;-83
2023/12/25 05:38:39;;;;;;;0.40;0.40;;;13.40;99.90;;;;;;965852;148;27407;-83
2023/12/25 05:41:05;;;;;;;0.70;0.43;;;13.30;99.90;;;;;;964961;146;27289;-83
2023/12/25 05:43:32;;;;;;;0.30;0.30;;;13.30;99.90;;;;;;920315;151;27304;-83
2023/12/25 05:45:59;;;;;;;0.30;0.30;;;13.20;99.90;;;;;;946701;149;27305;-83
2023/12/25 05:48:25;;;;;;;0.30;0.30;;;13.10;99.90;;;;;;945939;151;27360;-83
2023/12/25 05:50:52;;;;;;;0.30;0.30;;;13.00;99.90;;;;;;947086;151;27736;-83
2023/12/25 05:53:18;;;;;;;0.30;0.30;;;12.90;99.90;;;;;;946203;151;27309;-81
2023/12/25 05:55:45;;;;;;;0.30;0.30;;;12.80;99.90;;;;;;945937;150;27428;-83
2023/12/25 05:58:12;;;;;;;0.20;0.20;;;12.80;99.90;;;;;;946964;150;27325;-84
2023/12/25 06:00:38;;;;;;;0.57;0.50;;;12.70;99.90;;;;;;945170;150;27354;-83
2023/12/25 06:03:05;;;;;;;0.87;0.50;;;12.60;99.90;;;;;;922641;150;27407;-83
2023/12/25 06:05:32;;;;;;;0.40;0.40;;;12.50;99.90;;;;;;930453;153;27292;-83
2023/12/25 06:07:58;;;;;;;0.40;0.40;;;12.40;99.90;;;;;;930708;152;27299;-83
2023/12/25 06:10:24;;;;;;;0.57;0.57;;;12.40;99.90;;;;;;933149;153;27373;-83
2023/12/25 06:12:51;;;;;;;1.03;0.90;;;12.40;99.90;;;;;;934552;152;27315;-83
2023/12/25 06:15:18;;;;;;;0.53;0.53;;;12.30;99.90;;;;;;936521;151;27413;-83
2023/12/25 06:17:44;;;;;;;0.70;0.43;;;12.20;99.90;;;;;;936221;151;27504;-81
2023/12/25 06:20:11;;;;;;;0.50;0.50;;;12.20;99.90;;;;;;934077;151;27431;-83
2023/12/25 06:22:37;;;;;;;0.40;0.40;;;12.20;99.90;;;;;;930096;151;27468;-82
2023/12/25 06:25:04;;;;;;;0.43;0.40;;;12.10;99.90;;;;;;944940;149;27338;-82
2023/12/25 06:27:31;;;;;;;0.50;0.50;;;12.10;99.90;;;;;;964951;146;27316;-84
2023/12/25 06:29:57;;;;;;;0.40;0.40;;;12.10;99.90;;;;;;966712;146;27355;-84
2023/12/25 06:32:24;;;;;;;0.60;0.43;;;12.00;99.90;;;;;;929696;151;27368;-82
2023/12/25 06:34:50;;;;;;;0.30;0.30;;;12.00;99.90;;;;;;946566;148;27833;-81
2023/12/25 06:37:17;;;;;;;0.40;0.30;;;12.00;99.90;;;;;;930851;153;27396;-83
2023/12/25 06:39:43;;;;;;;0.40;0.40;;;12.00;99.90;;;;;;964696;147;27265;-80
2023/12/25 06:42:10;;;;;;;0.40;0.40;;;11.90;99.90;;;;;;964762;147;27318;-80
2023/12/25 06:44:38;;;;;;;0.20;0.20;;;11.90;99.90;;;;;;965346;147;27774;-79
2023/12/25 06:47:03;;;;;;;0.45;0.33;;;11.90;99.90;;;;;;965497;146;27314;-79
2023/12/25 06:49:30;;;;;;;0.28;0.28;;;11.90;99.90;;;;;;964012;148;27304;-79
2023/12/25 06:51:56;;;;;;;0.20;0.20;;;11.90;99.90;;;;;;963489;146;27413;-81
2023/12/25 06:54:23;;;;;;;0.20;0.20;;;11.90;99.90;;;;;;962352;148;27333;-79
2023/12/25 06:56:50;;;;;;;0.27;0.27;;;11.90;99.90;;;;;;961072;148;27424;-80
2023/12/25 06:59:16;;;;;;;0.20;0.20;;;11.90;99.90;;;;;;962788;148;27791;-81
2023/12/25 07:01:43;;;;;;;0.20;0.20;;;11.90;99.90;;;;;;963386;147;27306;-81
2023/12/25 07:04:11;;;;;;;0.30;0.30;;;11.80;99.90;;;;;;963280;148;27391;-84
2023/12/25 07:06:36;;;;;;;0.30;0.30;;;11.80;99.90;;;;;;967186;146;27317;-83
2023/12/25 07:09:03;;;;;;;0.45;0.30;;;11.80;99.90;;;;;;964129;146;27426;-83
2023/12/25 07:11:29;;;;;;;0.30;0.30;;;11.80;99.90;;;;;;966110;146;27378;-85
2023/12/25 07:13:59;;;;;;;0.50;0.40;;;11.80;99.90;;;;;;967707;146;27255;-84
2023/12/25 07:16:26;;;;;;;0.20;0.20;;;11.80;99.90;;;;;;967517;147;27317;-85
2023/12/25 07:18:52;;;;;;;0.30;0.30;;;11.80;99.90;;;;;;966832;146;27327;-85
2023/12/25 07:21:18;;;;;;;1.50;0.30;;;11.80;99.90;;;;;;964746;147;27386;-85
2023/12/25 07:23:45;;;;;;;0.40;0.40;;;11.80;99.90;;;;;;964707;147;27322;-85
2023/12/25 07:26:11;;;;;;;0.43;0.43;;;11.80;99.90;;;;;;920665;151;27479;-86
2023/12/25 07:28:38;;;;;;;0.30;0.30;;;11.80;99.90;;;;;;945376;151;27335;-86
2023/12/25 07:31:05;;;;;;;0.40;0.40;;;11.80;99.90;;;;;;943648;149;27900;-87
2023/12/25 07:33:33;;;;;;;0.20;0.20;;;11.80;99.90;;;;;;938925;149;27289;-86
2023/12/25 07:35:58;;;;;;;0.25;0.25;;;11.80;99.90;;;;;;931347;151;27893;-86
2023/12/25 07:38:24;;;;;;;0.30;0.30;;;11.80;99.90;;;;;;946735;148;27977;-87
2023/12/25 07:40:51;;;;;;;0.30;0.30;;;11.80;99.90;;;;;;920873;152;27348;-87
2023/12/25 07:43:17;;;;;;;0.33;0.30;;;11.80;99.90;;;;;;946394;151;27278;-86
2023/12/25 07:45:44;;;;;;;0.30;0.30;;;11.80;99.90;;;;;;921627;152;27414;-82
2023/12/25 07:48:11;;;;;;;0.20;0.20;;;11.80;99.90;;;;;;934105;152;27430;-85
2023/12/25 07:50:37;;;;;;;0.30;0.30;;;11.80;99.90;;;;;;933615;152;27367;-84
2023/12/25 07:53:04;;;;;;;0.23;0.23;;;11.80;99.90;;;;;;933236;151;27345;-84
2023/12/25 07:55:32;;;;;;;0.30;0.30;;;11.80;99.90;;;;;;934242;153;27315;-83
2023/12/25 07:57:57;;;;;;;0.40;0.40;;;11.80;99.90;;;;;;933598;151;27442;-83
2023/12/25 08:00:24;;;;;;;0.28;0.28;;;11.90;99.90;;;;;;935136;151;27462;-84
2023/12/25 08:02:50;;;;;;;0.30;0.30;;;11.90;99.90;;;;;;932455;150;27370;-83
2023/12/25 08:05:17;;;;;;;0.20;0.20;;;11.90;99.90;;;;;;939557;149;27239;-83
2023/12/25 08:07:45;;;;;;;1.62;0.90;;;11.90;99.90;;;;;;939684;152;27381;-86
2023/12/25 08:10:11;;;;;;;1.67;0.90;;;11.90;99.90;;;;;;932286;150;27317;-85
2023/12/25 08:12:42;;;;;;;1.80;1.43;;;11.90;99.90;;;;;;965756;147;27326;-86
2023/12/25 08:15:04;;;;;;;2.87;1.40;;;11.90;99.90;;;;;;966857;146;27329;-84
2023/12/25 08:17:31;;;;;;;2.00;1.53;;;11.90;99.90;;;;;;964880;146;27378;-84
2023/12/25 08:19:58;;;;;;;1.33;0.80;;;11.90;99.90;;;;;;969378;145;27351;-85
2023/12/25 08:22:24;;;;;;;3.80;0.70;;;11.90;99.90;;;;;;967086;146;27261;-84
2023/12/25 08:24:51;;;;;;;0.50;0.40;;;11.90;99.90;;;;;;966320;146;27411;-84
2023/12/25 08:27:17;;;;;;;0.47;0.47;;;11.90;99.90;;;;;;968059;146;27306;-84
2023/12/25 08:29:44;;;;;;;0.63;0.30;;;11.90;99.90;;;;;;967077;146;27327;-84
2023/12/25 08:32:11;;;;;;;0.40;0.40;;;11.90;99.90;;;;;;969020;146;27229;-83
2023/12/25 08:34:38;;;;;;;0.33;0.33;;;11.90;99.90;;;;;;963550;147;27309;-83
2023/12/25 08:37:04;;;;;;;0.40;0.40;;;11.90;99.90;;;;;;964995;147;27423;-82
2023/12/25 08:39:31;;;;;;;0.43;0.43;;;11.90;99.90;;;;;;965199;146;27235;-83
2023/12/25 08:42:00;;;;;;;0.50;0.50;;;11.90;99.90;;;;;;966995;146;27335;-83
2023/12/25 08:44:23;;;;;;;0.40;0.40;;;11.90;99.90;;;;;;968105;146;27397;-85
2023/12/25 08:46:50;;;;;;;0.33;0.33;;;12.00;99.90;;;;;;968481;146;27334;-84
2023/12/25 08:49:17;;;;;;;0.30;0.30;;;12.00;99.90;;;;;;966711;146;27282;-84
2023/12/25 08:51:43;;;;;;;4.17;3.70;;;12.00;99.90;;;;;;966773;147;27877;-84
2023/12/25 08:54:10;;;;;;;1.27;1.17;;;12.00;99.90;;;;;;966197;146;27326;-84
2023/12/25 08:56:37;;;;;;;0.93;0.70;;;12.00;99.90;;;;;;962819;147;27316;-84
2023/12/25 08:59:05;;;;;;;0.50;0.50;;;12.00;99.90;;;;;;963746;146;27325;-84
2023/12/25 09:01:30;;;;;;;0.40;0.40;;;12.00;99.90;;;;;;975589;145;27413;-84
2023/12/25 09:03:57;;;;;;;0.70;0.33;;;12.10;99.90;;;;;;975194;146;27401;-84
2023/12/25 09:06:23;;;;;;;0.50;0.50;;;12.10;99.90;;;;;;975456;146;27300;-84
2023/12/25 09:08:49;;;;;;;0.40;0.40;;;12.10;99.90;;;;;;975196;146;27429;-84
2023/12/25 09:11:17;;;;;;;1.55;0.30;;;12.20;99.90;;;;;;974937;146;27363;-84
2023/12/25 09:13:43;;;;;;;0.40;0.40;;;12.20;99.90;;;;;;974605;146;27331;-84
2023/12/25 09:16:09;;;;;;;0.45;0.45;;;12.20;99.90;;;;;;969669;145;27262;-84
2023/12/25 09:18:36;;;;;;;0.47;0.30;;;12.30;99.90;;;;;;972494;145;27408;-84
2023/12/25 09:21:02;;;;;;;0.60;0.60;;;12.30;99.90;;;;;;975116;146;27313;-85
2023/12/25 09:23:29;;;;;;;0.60;0.60;;;12.30;99.90;;;;;;972176;146;27292;-85
2023/12/25 09:25:56;;;;;;;0.40;0.40;;;12.40;99.90;;;;;;970788;145;27266;-85
2023/12/25 09:28:22;;;;;;;0.30;0.30;;;12.40;99.90;;;;;;970643;146;27391;-85
2023/12/25 09:30:49;;;;;;;0.40;0.40;;;12.40;99.90;;;;;;968675;146;27339;-86
2023/12/25 09:33:15;;;;;;;0.30;0.30;;;12.50;99.90;;;;;;972315;146;27259;-86
2023/12/25 09:35:42;;;;;;;0.35;0.35;;;12.40;99.90;;;;;;970720;146;27297;-86
2023/12/25 09:38:08;;;;;;;0.25;0.25;;;12.50;99.90;;;;;;968462;145;27409;-85
2023/12/25 09:40:35;;;;;;;0.40;0.40;;;12.50;99.90;;;;;;971393;146;28239;-86
2023/12/25 09:43:02;;;;;;;0.57;0.57;;;12.50;99.90;;;;;;975165;146;27281;-85
2023/12/25 09:45:31;;;;;;;0.70;0.70;;;12.50;99.90;;;;;;969814;145;27410;-88
2023/12/25 09:47:58;;;;;;;1.12;0.50;;;12.50;99.90;;;;;;961352;145;27334;-85
2023/12/25 09:50:24;;;;;;;1.02;1.00;;;12.60;99.90;;;;;;942011;148;27336;-86
2023/12/25 09:52:51;;;;;;;2.47;0.62;;;12.60;99.90;;;;;;955247;148;27279;-87
2023/12/25 09:55:17;;;;;;;1.07;0.88;;;12.60;99.90;;;;;;979423;146;27291;-86
2023/12/25 09:57:44;;;;;;;0.50;0.50;;;12.70;99.90;;;;;;971817;145;27391;-87
2023/12/25 10:00:11;;;;;;;0.57;0.57;;;12.80;99.90;;;;;;972066;145;27402;-84
2023/12/25 10:02:37;;;;;;;0.42;0.42;;;12.80;99.90;;;;;;966687;146;28222;-85
2023/12/25 10:05:04;;;;;;;0.30;0.30;;;12.80;99.90;;;;;;966487;146;27272;-84
2023/12/25 10:07:30;;;;;;;0.45;0.45;;;12.90;99.90;;;;;;966584;146;27294;-83
2023/12/25 10:09:57;;;;;;;0.70;0.70;;;12.90;99.90;;;;;;967194;146;27413;-84
2023/12/25 10:12:24;;;;;;;0.40;0.40;;;12.90;99.90;;;;;;966207;146;27333;-83
2023/12/25 10:14:50;;;;;;;0.98;0.93;;;13.00;99.90;;;;;;965923;146;27285;-83
2023/12/25 10:17:17;;;;;;;0.70;0.70;;;13.00;99.90;;;;;;969423;146;27403;-84
2023/12/25 10:19:52;;;;;;;0.60;0.60;;;13.00;99.90;;;;;;971169;146;27366;-83
2023/12/25 10:22:31;;;;;;;0.57;0.57;;;13.10;99.90;;;;;;969110;145;27308;-85
2023/12/25 10:25:10;;;;;;;0.30;0.30;;;13.10;99.90;;;;;;961817;145;27312;-85
2023/12/25 10:27:39;;;;;;;0.75;0.75;;;13.10;99.90;;;;;;966318;147;27795;-84
2023/12/25 10:30:18;;;;;;;0.42;0.40;;;13.20;99.90;;;;;;965241;147;27317;-84
2023/12/25 10:32:44;;;;;;;0.78;0.60;;;13.20;99.90;;;;;;966727;147;27314;-85
2023/12/25 10:35:11;;;;;;;0.47;0.47;;;13.20;99.90;;;;;;963353;146;27834;-83
2023/12/25 10:37:37;;;;;;;0.37;0.37;;;13.20;99.90;;;;;;964228;146;27317;-82
2023/12/25 10:40:19;;;;;;;0.47;0.47;;;13.20;99.90;;;;;;962795;146;28102;-84
2023/12/25 10:42:45;;;;;;;0.40;0.40;;;13.20;99.90;;;;;;964769;146;27325;-84
2023/12/25 10:45:12;;;;;;;0.85;0.50;;;13.20;99.90;;;;;;963506;147;27307;-84
2023/12/25 10:47:39;;;;;;;0.40;0.40;;;13.30;99.90;;;;;;963521;146;27267;-84
2023/12/25 10:50:06;;;;;;;0.25;0.25;;;13.30;99.90;;;;;;964164;146;27299;-84
2023/12/25 10:52:33;;;;;;;0.47;0.47;;;13.30;99.90;;;;;;962826;147;27413;-84
2023/12/25 10:55:00;;;;;;;0.40;0.40;;;13.40;99.90;;;;;;964089;147;27253;-85
2023/12/25 10:57:26;;;;;;;0.40;0.40;;;13.40;99.90;;;;;;963529;147;27375;-83
2023/12/25 10:59:53;;;;;;;0.30;0.30;;;13.40;99.90;;;;;;964028;147;27441;-84
2023/12/25 11:02:19;;;;;;;0.40;0.40;;;13.40;99.90;;;;;;963512;146;27369;-83
2023/12/25 11:04:47;;;;;;;0.42;0.42;;;13.40;99.90;;;;;;969802;146;27831;-84
2023/12/25 11:07:13;;;;;;;0.20;0.20;;;13.50;99.90;;;;;;969657;146;27277;-84
2023/12/25 11:09:39;;;;;;;0.30;0.30;;;13.50;99.90;;;;;;970856;144;27413;-84
2023/12/25 11:12:06;;;;;;;0.30;0.30;;;13.50;99.90;;;;;;969643;145;27441;-83
2023/12/25 11:14:33;;;;;;;0.40;0.40;;;13.60;99.90;;;;;;967076;146;27384;-83
2023/12/25 11:16:59;;;;;;;0.47;0.40;;;13.60;99.90;;;;;;965983;146;27347;-86
2023/12/25 11:19:25;;;;;;;0.20;0.20;;;13.70;99.90;;;;;;967987;146;27270;-85
2023/12/25 11:21:53;;;;;;;0.40;0.40;;;13.70;99.90;;;;;;967408;145;27313;-85
2023/12/25 11:24:19;;;;;;;0.70;0.60;;;13.70;99.90;;;;;;965603;146;27325;-85
2023/12/25 11:26:45;;;;;;;0.55;0.30;;;13.70;99.90;;;;;;967618;148;27339;-85
2023/12/25 11:29:12;;;;;;;0.28;0.28;;;13.70;99.90;;;;;;968379;145;27324;-84
2023/12/25 11:31:42;;;;;;;0.30;0.30;;;13.80;99.90;;;;;;967738;145;27334;-85
2023/12/25 11:34:20;;;;;;;0.30;0.30;;;13.80;99.90;;;;;;967594;148;27786;-85
2023/12/25 11:36:46;;;;;;;0.33;0.33;;;13.80;99.90;;;;;;965780;146;27389;-84
2023/12/25 11:39:13;;;;;;;0.50;0.50;;;13.90;99.90;;;;;;967303;145;27278;-84
2023/12/25 11:41:40;;;;;;;0.28;0.28;;;14.00;99.90;;;;;;968738;148;27317;-85
2023/12/25 11:44:07;;;;;;;0.25;0.25;;;14.00;99.90;;;;;;968097;147;27321;-84
2023/12/25 11:46:36;;;;;;;0.20;0.20;;;14.00;99.90;;;;;;967644;147;27254;-84
2023/12/25 11:49:02;;;;;;;0.33;0.33;;;14.10;99.90;;;;;;967856;147;27356;-84
2023/12/25 11:51:31;;;;;;;0.50;0.40;;;14.20;99.90;;;;;;968066;145;27317;-84
2023/12/25 11:54:02;;;;;;;0.40;0.40;;;14.20;99.90;;;;;;968148;146;27371;-84
2023/12/25 11:56:28;;;;;;;0.42;0.42;;;14.20;99.90;;;;;;966814;145;27351;-85
2023/12/25 11:58:54;;;;;;;0.20;0.20;;;14.30;99.90;;;;;;967601;146;27298;-85
2023/12/25 12:01:22;;;;;;;0.40;0.40;;;14.30;99.90;;;;;;966878;148;27350;-84
2023/12/25 12:03:47;;;;;;;0.30;0.30;;;14.40;99.90;;;;;;971473;146;27352;-84
2023/12/25 12:06:14;;;;;;;0.37;0.37;;;14.40;99.90;;;;;;974463;146;27289;-84
2023/12/25 12:08:41;;;;;;;0.23;0.23;;;14.40;99.90;;;;;;973962;146;27382;-85
2023/12/25 12:11:07;;;;;;;0.20;0.20;;;14.40;99.90;;;;;;972451;145;27406;-85
2023/12/25 12:13:34;;;;;;;0.40;0.40;;;14.50;99.90;;;;;;974665;146;27324;-84
2023/12/25 12:16:00;;;;;;;0.45;0.45;;;14.50;99.90;;;;;;965004;146;27341;-85
2023/12/25 12:18:27;;;;;;;0.30;0.30;;;14.50;99.90;;;;;;963553;147;27348;-84
2023/12/25 12:20:56;;;;;;;0.20;0.20;;;14.40;99.90;;;;;;965018;146;27754;-82
2023/12/25 12:23:23;;;;;;;0.40;0.40;;;14.50;99.90;;;;;;966486;146;27323;-83
2023/12/25 12:25:50;;;;;;;0.30;0.30;;;14.40;99.90;;;;;;973065;146;27371;-82
2023/12/25 12:28:16;;;;;;;0.35;0.35;;;14.50;99.90;;;;;;973316;146;27344;-83
2023/12/25 12:30:43;;;;;;;0.20;0.20;;;14.50;99.90;;;;;;968823;148;27360;-82
2023/12/25 12:33:09;;;;;;;0.40;0.40;;;14.40;99.90;;;;;;968134;146;27771;-84
2023/12/25 12:35:36;;;;;;;1.22;0.35;;;14.50;99.90;;;;;;968724;147;27407;-82
2023/12/25 12:38:02;;;;;;;0.40;0.40;;;14.50;99.90;;;;;;968299;147;27362;-82
2023/12/25 12:40:29;;;;;;;0.50;0.50;;;14.50;99.90;;;;;;967640;145;27368;-83
2023/12/25 12:42:56;;;;;;;0.20;0.20;;;14.50;99.90;;;;;;968181;147;27256;-83
2023/12/25 12:45:22;;;;;;;0.30;0.30;;;14.40;99.90;;;;;;969008;145;27322;-83
2023/12/25 12:47:52;;;;;;;0.30;0.30;;;14.50;99.90;;;;;;969041;145;27333;-83